createdAt,value
2022-12-06T00:02:13.072Z,21.57
2022-12-06T00:04:39.923Z,22.80
2022-12-06T00:07:07.003Z,22.23
2022-12-06T00:09:34.474Z,23.17
2022-12-06T00:12:01.204Z,21.73
2022-12-06T00:14:28.204Z,22.57
2022-12-06T00:16:55.160Z,22.83
2022-12-06T00:19:23.869Z,22.70
2022-12-06T00:21:52.824Z,22.27
2022-12-06T00:24:21.987Z,21.60
2022-12-06T00:26:50.107Z,22.30
2022-12-06T00:29:21.725Z,18.67
2022-12-06T00:31:49.581Z,20.57
2022-12-06T00:34:16.989Z,20.10
2022-12-06T00:36:43.894Z,42.27
2022-12-06T00:39:17.237Z,19.97
2022-12-06T00:41:45.380Z,34.63
2022-12-06T00:44:12.485Z,32.70
2022-12-06T00:46:39.816Z,19.07
2022-12-06T00:49:08.048Z,18.50
2022-12-06T00:51:37.183Z,19.07
2022-12-06T00:54:04.504Z,18.10
2022-12-06T00:56:32.404Z,17.50
2022-12-06T00:58:59.479Z,20.50
2022-12-06T01:01:29.323Z,19.47
2022-12-06T01:04:02.781Z,18.77
2022-12-06T01:06:32.641Z,17.37
2022-12-06T01:09:03.219Z,20.02
2022-12-06T01:11:30.556Z,19.33
2022-12-06T01:13:58.166Z,27.83
2022-12-06T01:16:29.019Z,19.63
2022-12-06T01:19:01.531Z,17.90
2022-12-06T01:21:29.039Z,19.13
2022-12-06T01:23:55.867Z,18.50
2022-12-06T01:26:25.490Z,18.90
2022-12-06T01:28:53.002Z,19.27
2022-12-06T01:31:20.170Z,32.40
2022-12-06T01:33:47.299Z,17.80
2022-12-06T01:36:22.571Z,17.53
2022-12-06T01:38:57.324Z,17.57
2022-12-06T01:41:26.408Z,18.10
2022-12-06T01:43:53.982Z,18.60
2022-12-06T01:46:38.482Z,18.43
2022-12-06T01:49:11.733Z,18.37
2022-12-06T01:51:41.085Z,18.23
2022-12-06T01:54:11.423Z,19.42
2022-12-06T01:56:40.411Z,17.20
2022-12-06T01:59:08.303Z,17.77
2022-12-06T02:01:36.125Z,18.77
2022-12-06T02:04:03.161Z,22.17
2022-12-06T02:06:32.073Z,17.77
2022-12-06T02:09:01.274Z,16.87
2022-12-06T02:11:32.159Z,18.63
2022-12-06T02:14:05.071Z,17.83
2022-12-06T02:16:31.742Z,18.13
2022-12-06T02:19:13.570Z,18.53
2022-12-06T02:21:58.019Z,17.10
2022-12-06T02:24:44.523Z,18.60
2022-12-06T02:27:20.538Z,19.57
2022-12-06T02:30:08.940Z,18.00
2022-12-06T02:32:55.101Z,18.03
2022-12-06T02:35:25.229Z,18.20
2022-12-06T02:37:59.885Z,18.90
2022-12-06T02:40:42.996Z,19.47
2022-12-06T02:43:16.143Z,17.47
2022-12-06T02:45:50.329Z,17.90
2022-12-06T02:48:19.423Z,17.87
2022-12-06T02:50:53.695Z,19.87
2022-12-06T02:53:24.221Z,20.10
2022-12-06T02:55:52.140Z,19.93
2022-12-06T02:58:18.951Z,20.20
2022-12-06T03:00:50.906Z,20.23
2022-12-06T03:03:49.484Z,21.17
2022-12-06T03:06:40.918Z,18.63
2022-12-06T03:09:29.685Z,19.43
2022-12-06T03:12:08.551Z,18.97
2022-12-06T03:14:46.448Z,19.37
2022-12-06T03:17:44.087Z,20.07
2022-12-06T03:20:43.174Z,22.60
2022-12-06T03:23:17.364Z,18.80
2022-12-06T03:25:46.924Z,18.83
2022-12-06T03:28:16.764Z,19.40
2022-12-06T03:30:49.439Z,18.30
2022-12-06T03:33:18.675Z,19.13
2022-12-06T03:35:47.215Z,18.23
2022-12-06T03:38:37.525Z,18.50
2022-12-06T03:43:33.921Z,18.60
2022-12-06T03:46:17.838Z,20.77
2022-12-06T03:48:53.980Z,18.67
2022-12-06T03:51:26.327Z,18.83
2022-12-06T03:53:56.487Z,18.80
2022-12-06T03:56:23.770Z,18.15
2022-12-06T03:58:50.663Z,18.53
2022-12-06T04:01:17.801Z,19.77
2022-12-06T04:03:44.940Z,18.70
2022-12-06T04:06:12.397Z,19.73
2022-12-06T04:08:39.328Z,19.27
2022-12-06T04:11:06.468Z,18.43
2022-12-06T04:13:33.564Z,18.40
2022-12-06T04:16:01.851Z,19.03
2022-12-06T04:18:28.746Z,19.83
2022-12-06T04:21:19.957Z,20.17
2022-12-06T04:23:49.467Z,18.27
2022-12-06T04:26:19.385Z,18.67
2022-12-06T04:29:04.999Z,19.40
2022-12-06T04:31:50.482Z,18.07
2022-12-06T04:34:36.141Z,19.00
2022-12-06T04:37:21.520Z,18.83
2022-12-06T04:39:48.666Z,19.80
2022-12-06T04:42:34.099Z,18.77
2022-12-06T04:45:01.021Z,18.77
2022-12-06T04:47:28.517Z,20.20
2022-12-06T04:49:55.420Z,19.20
2022-12-06T04:52:22.162Z,19.27
2022-12-06T04:54:48.928Z,18.47
2022-12-06T04:57:16.972Z,18.50
2022-12-06T04:59:46.281Z,18.73
2022-12-06T05:02:14.796Z,18.75
2022-12-06T05:04:41.738Z,19.23
2022-12-06T05:07:08.783Z,18.33
2022-12-06T05:09:35.568Z,17.90
2022-12-06T05:12:02.516Z,18.50
2022-12-06T05:14:29.316Z,19.00
2022-12-06T05:16:56.076Z,20.47
2022-12-06T05:19:22.948Z,18.33
2022-12-06T05:21:49.640Z,23.33
2022-12-06T05:24:16.364Z,19.33
2022-12-06T05:26:43.287Z,19.00
2022-12-06T05:29:10.090Z,18.63
2022-12-06T05:31:36.851Z,19.63
2022-12-06T05:34:03.683Z,18.47
2022-12-06T05:36:30.515Z,18.53
2022-12-06T05:38:57.584Z,24.33
2022-12-06T05:41:25.235Z,18.20
2022-12-06T05:43:52.188Z,19.63
2022-12-06T05:46:19.077Z,20.37
2022-12-06T05:48:45.969Z,18.67
2022-12-06T05:51:14.072Z,18.63
2022-12-06T05:53:41.483Z,18.80
2022-12-06T05:56:11.518Z,20.00
2022-12-06T05:58:40.029Z,19.70
2022-12-06T06:01:08.252Z,18.17
2022-12-06T06:03:35.980Z,19.40
2022-12-06T06:06:03.238Z,19.37
2022-12-06T06:08:30.654Z,20.33
2022-12-06T06:10:58.280Z,20.53
2022-12-06T06:13:25.349Z,19.53
2022-12-06T06:15:52.375Z,19.70
2022-12-06T06:18:19.744Z,19.93
2022-12-06T06:20:55.034Z,19.20
2022-12-06T06:23:22.885Z,19.33
2022-12-06T06:25:49.649Z,20.17
2022-12-06T06:28:17.022Z,19.43
2022-12-06T06:30:44.979Z,19.57
2022-12-06T06:33:12.635Z,19.83
2022-12-06T06:35:39.588Z,19.90
2022-12-06T06:38:06.831Z,20.83
2022-12-06T06:40:33.914Z,19.17
2022-12-06T06:43:18.555Z,18.33
2022-12-06T06:45:56.657Z,20.17
2022-12-06T06:48:24.779Z,19.37
2022-12-06T06:50:56.966Z,18.87
2022-12-06T06:53:26.570Z,31.83
2022-12-06T06:55:54.407Z,20.20
2022-12-06T06:58:21.128Z,20.40
2022-12-06T07:00:55.937Z,20.87
2022-12-06T07:03:23.661Z,21.40
2022-12-06T07:05:53.446Z,30.07
2022-12-06T07:08:20.939Z,33.63
2022-12-06T07:10:48.953Z,20.80
2022-12-06T07:13:16.745Z,20.00
2022-12-06T07:15:43.493Z,19.97
2022-12-06T07:18:10.819Z,20.00
2022-12-06T07:20:37.545Z,20.43
2022-12-06T07:23:06.495Z,21.00
2022-12-06T07:25:33.569Z,19.83
2022-12-06T07:28:06.183Z,21.17
2022-12-06T07:30:37.412Z,21.47
2022-12-06T07:33:04.282Z,20.70
2022-12-06T07:36:03.151Z,20.90
2022-12-06T07:38:26.867Z,21.40
2022-12-06T07:41:25.431Z,32.90
2022-12-06T07:44:18.227Z,20.87
2022-12-06T07:46:51.934Z,20.60
2022-12-06T07:49:19.968Z,20.83
2022-12-06T07:51:47.210Z,30.73
2022-12-06T07:54:15.422Z,22.53
2022-12-06T07:56:43.958Z,21.40
2022-12-06T07:59:11.447Z,21.87
2022-12-06T08:01:38.614Z,22.47
2022-12-06T08:04:06.428Z,21.67
2022-12-06T08:06:34.195Z,21.33
2022-12-06T08:09:01.073Z,23.70
2022-12-06T08:11:28.906Z,23.87
2022-12-06T08:13:55.920Z,22.20
2022-12-06T08:16:22.922Z,21.33
2022-12-06T08:18:50.005Z,20.60
2022-12-06T08:21:16.741Z,21.17
2022-12-06T08:23:43.419Z,29.07
2022-12-06T08:26:14.420Z,19.23
2022-12-06T08:28:43.342Z,22.17
2022-12-06T08:31:16.273Z,21.63
2022-12-06T08:33:43.623Z,21.63
2022-12-06T08:36:13.212Z,21.33
2022-12-06T08:38:40.377Z,21.70
2022-12-06T08:41:28.790Z,21.40
2022-12-06T08:43:57.156Z,21.97
2022-12-06T08:46:24.761Z,28.63
2022-12-06T08:48:52.406Z,21.93
2022-12-06T08:51:19.173Z,21.80
2022-12-06T08:53:46.288Z,31.13
2022-12-06T08:56:13.411Z,22.00
2022-12-06T08:58:40.355Z,24.17
2022-12-06T09:01:16.668Z,22.50
2022-12-06T09:03:43.605Z,21.67
2022-12-06T09:06:11.260Z,23.43
2022-12-06T09:08:38.318Z,21.50
2022-12-06T09:11:06.149Z,22.17
2022-12-06T09:13:34.721Z,22.43
2022-12-06T09:16:06.678Z,21.27
2022-12-06T09:18:33.812Z,36.73
2022-12-06T09:21:05.465Z,22.17
2022-12-06T09:23:32.427Z,26.13
2022-12-06T09:25:59.263Z,30.30
2022-12-06T09:28:26.344Z,23.37
2022-12-06T09:30:53.055Z,22.17
2022-12-06T09:33:19.759Z,23.77
2022-12-06T09:35:46.757Z,26.87
2022-12-06T09:38:13.891Z,23.03
2022-12-06T09:40:52.871Z,22.13
2022-12-06T09:43:19.539Z,20.60
2022-12-06T09:45:56.469Z,21.60
2022-12-06T09:48:45.677Z,41.10
2022-12-06T09:51:24.557Z,26.97
2022-12-06T09:54:23.142Z,25.60
2022-12-06T09:57:07.785Z,26.20
2022-12-06T09:59:57.797Z,24.77
2022-12-06T10:02:30.807Z,34.03
2022-12-06T10:05:39.077Z,25.03
2022-12-06T10:08:27.603Z,23.03
2022-12-06T10:11:31.061Z,39.53
2022-12-06T10:14:12.839Z,23.40
2022-12-06T10:16:57.908Z,23.57
2022-12-06T10:19:58.291Z,25.92
2022-12-06T10:22:44.258Z,25.25
2022-12-06T10:25:24.979Z,24.85
2022-12-06T10:28:37.561Z,25.90
2022-12-06T10:31:40.994Z,25.55
2022-12-06T10:34:36.681Z,25.35
2022-12-06T10:37:18.339Z,34.80
2022-12-06T10:39:59.817Z,27.45
2022-12-06T10:42:34.211Z,23.52
2022-12-06T10:45:34.389Z,21.75
2022-12-06T10:50:33.280Z,24.90
2022-12-06T10:53:13.509Z,21.17
2022-12-06T10:55:58.499Z,24.15
2022-12-06T10:58:31.333Z,23.65
2022-12-06T11:01:02.092Z,23.65
2022-12-06T11:03:44.050Z,25.60
2022-12-06T11:06:44.210Z,23.70
2022-12-06T11:09:13.691Z,23.40
2022-12-06T11:11:41.668Z,24.67
2022-12-06T11:14:20.614Z,25.80
2022-12-06T11:17:05.878Z,34.88
2022-12-06T11:19:39.634Z,25.67
2022-12-06T11:22:45.152Z,39.10
2022-12-06T11:25:15.445Z,26.40
2022-12-06T11:27:49.636Z,33.33
2022-12-06T11:30:20.552Z,26.42
2022-12-06T11:32:51.865Z,26.23
2022-12-06T11:35:28.616Z,26.67
2022-12-06T11:38:00.418Z,36.92
2022-12-06T11:40:34.481Z,33.83
2022-12-06T11:43:05.675Z,27.60
2022-12-06T11:45:35.013Z,29.05
2022-12-06T11:48:28.849Z,26.50
2022-12-06T11:50:55.784Z,26.85
2022-12-06T11:53:33.648Z,26.92
2022-12-06T11:56:26.749Z,28.90
2022-12-06T11:59:07.911Z,27.27
2022-12-06T12:01:55.121Z,37.50
2022-12-06T12:04:37.122Z,26.98
2022-12-06T12:07:09.993Z,24.40
2022-12-06T12:09:56.021Z,25.77
2022-12-06T12:13:08.586Z,37.42
2022-12-06T12:15:36.617Z,24.23
2022-12-06T12:18:04.668Z,33.63
2022-12-06T12:20:36.585Z,33.42
2022-12-06T12:23:22.012Z,26.15
2022-12-06T12:26:13.688Z,27.42
2022-12-06T12:28:43.190Z,25.35
2022-12-06T12:31:26.849Z,29.73
2022-12-06T12:34:14.900Z,26.73
2022-12-06T12:36:48.576Z,24.70
2022-12-06T12:39:39.457Z,25.90
2022-12-06T12:42:29.241Z,25.20
2022-12-06T12:45:01.252Z,24.52
2022-12-06T12:47:28.836Z,25.67
2022-12-06T12:50:23.982Z,27.42
2022-12-06T12:52:52.009Z,27.02
2022-12-06T12:55:26.210Z,26.75
2022-12-06T12:57:55.014Z,27.52
2022-12-06T13:00:25.878Z,36.92
2022-12-06T13:03:18.121Z,42.45
2022-12-06T13:05:53.964Z,24.30
2022-12-06T13:08:27.136Z,45.70
2022-12-06T13:10:59.450Z,26.52
2022-12-06T13:13:49.975Z,27.08
2022-12-06T13:16:35.536Z,24.13
2022-12-06T13:19:03.022Z,42.50
2022-12-06T13:21:41.342Z,24.63
2022-12-06T13:24:18.308Z,40.38
2022-12-06T13:26:50.027Z,33.17
2022-12-06T13:29:34.764Z,27.00
2022-12-06T13:32:14.988Z,35.17
2022-12-06T13:34:47.691Z,24.77
2022-12-06T13:37:34.861Z,36.90
2022-12-06T13:40:03.477Z,25.85
2022-12-06T13:42:36.369Z,23.80
2022-12-06T13:45:06.012Z,22.23
2022-12-06T13:47:32.625Z,22.48
2022-12-06T13:50:16.377Z,22.10
2022-12-06T13:52:43.156Z,20.85
2022-12-06T13:55:25.058Z,22.65
2022-12-06T13:58:00.642Z,22.38
2022-12-06T14:00:30.440Z,22.70
2022-12-06T14:03:21.853Z,23.98
2022-12-06T14:06:15.741Z,21.92
2022-12-06T14:08:54.367Z,23.40
2022-12-06T14:11:32.932Z,24.13
2022-12-06T14:14:09.918Z,23.42
2022-12-06T14:16:42.338Z,23.10
2022-12-06T14:19:28.465Z,31.40
2022-12-06T14:22:17.075Z,25.25
2022-12-06T14:25:04.442Z,23.98
2022-12-06T14:27:34.522Z,23.30
2022-12-06T14:35:11.599Z,22.65
2022-12-06T14:37:39.052Z,24.35
2022-12-06T14:40:44.525Z,24.67
2022-12-06T14:43:17.588Z,24.55
2022-12-06T14:45:45.714Z,25.05
2022-12-06T14:48:13.471Z,24.27
2022-12-06T14:50:58.521Z,39.17
2022-12-06T14:53:32.785Z,21.70
2022-12-06T14:56:03.391Z,22.85
2022-12-06T14:58:36.169Z,21.08
2022-12-06T15:01:15.164Z,39.22
2022-12-06T15:03:42.013Z,22.33
2022-12-06T15:06:21.639Z,23.02
2022-12-06T15:08:58.935Z,31.98
2022-12-06T15:11:59.912Z,21.88
2022-12-06T15:14:47.886Z,23.52
2022-12-06T15:17:22.316Z,23.70
2022-12-06T15:19:51.460Z,23.23
2022-12-06T15:22:24.814Z,22.08
2022-12-06T15:24:57.571Z,38.60
2022-12-06T15:27:27.172Z,21.83
2022-12-06T15:29:54.275Z,23.67
2022-12-06T15:32:23.850Z,22.42
2022-12-06T15:34:50.588Z,21.60
2022-12-06T15:40:04.828Z,22.08
2022-12-06T15:42:31.614Z,22.42
2022-12-06T15:44:58.306Z,21.30
2022-12-06T15:47:25.392Z,21.38
2022-12-06T15:49:54.026Z,33.65
2022-12-06T15:52:24.894Z,21.17
2022-12-06T15:54:52.047Z,21.30
2022-12-06T15:57:18.737Z,21.85
2022-12-06T15:59:45.621Z,29.60
2022-12-06T16:02:17.574Z,22.70
2022-12-06T16:04:45.107Z,22.45
2022-12-06T16:07:14.388Z,22.88
2022-12-06T16:09:41.186Z,22.17
2022-12-06T16:12:07.936Z,22.85
2022-12-06T16:14:34.638Z,25.25
2022-12-06T16:17:02.021Z,22.70
2022-12-06T16:19:48.868Z,23.52
2022-12-06T16:22:15.765Z,23.63
2022-12-06T16:24:42.516Z,22.50
2022-12-06T16:27:09.341Z,23.35
2022-12-06T16:29:36.152Z,24.05
2022-12-06T16:32:03.035Z,23.55
2022-12-06T16:34:30.277Z,32.85
2022-12-06T16:36:57.100Z,22.67
2022-12-06T16:39:23.864Z,33.67
2022-12-06T16:41:50.606Z,24.17
2022-12-06T16:44:17.372Z,24.83
2022-12-06T16:46:45.696Z,24.42
2022-12-06T16:52:11.038Z,23.75
2022-12-06T16:54:41.801Z,23.77
2022-12-06T16:57:10.187Z,29.45
2022-12-06T16:59:37.167Z,23.88
2022-12-06T17:02:08.586Z,25.23
2022-12-06T17:04:39.699Z,24.25
2022-12-06T17:07:06.570Z,23.80
2022-12-06T17:09:33.241Z,27.58
2022-12-06T17:12:02.793Z,24.58
2022-12-06T17:14:30.461Z,24.00
2022-12-06T17:16:59.239Z,24.17
2022-12-06T17:19:28.281Z,25.02
2022-12-06T17:21:55.828Z,33.17
2022-12-06T17:24:24.891Z,25.98
2022-12-06T17:26:54.132Z,38.15
2022-12-06T17:29:21.531Z,24.88
2022-12-06T17:31:48.339Z,33.45
2022-12-06T17:34:15.752Z,24.95
2022-12-06T17:36:43.069Z,35.22
2022-12-06T17:39:13.007Z,33.33
2022-12-06T17:41:58.318Z,23.67
2022-12-06T17:44:25.326Z,36.97
2022-12-06T17:46:52.115Z,25.77
2022-12-06T17:49:21.605Z,24.40
2022-12-06T17:51:48.990Z,24.48
2022-12-06T17:54:21.201Z,24.33
2022-12-06T17:56:53.567Z,25.58
2022-12-06T17:59:29.063Z,29.20
2022-12-06T18:02:15.069Z,25.95
2022-12-06T18:04:44.111Z,25.65
2022-12-06T18:07:14.566Z,30.10
2022-12-06T18:09:43.774Z,26.05
2022-12-06T18:12:14.916Z,24.23
2022-12-06T18:14:44.088Z,41.17
2022-12-06T18:17:11.722Z,25.67
2022-12-06T18:19:49.376Z,34.50
2022-12-06T18:22:23.265Z,42.85
2022-12-06T18:24:52.367Z,28.15
2022-12-06T18:27:19.103Z,35.08
2022-12-06T18:29:48.826Z,28.05
2022-12-06T18:32:21.145Z,33.45
2022-12-06T18:34:47.835Z,33.53
2022-12-06T18:37:14.540Z,31.80
2022-12-06T18:39:41.374Z,34.40
2022-12-06T18:42:08.116Z,37.35
2022-12-06T18:44:34.847Z,33.87
2022-12-06T18:47:01.616Z,49.87
2022-12-06T18:49:28.942Z,47.67
2022-12-06T18:51:55.648Z,47.93
2022-12-06T18:54:22.533Z,35.87
2022-12-06T18:56:49.229Z,36.63
2022-12-06T18:59:22.016Z,51.97
2022-12-06T19:01:51.354Z,33.13
2022-12-06T19:04:19.540Z,34.23
2022-12-06T19:06:46.298Z,31.10
2022-12-06T19:09:15.624Z,41.23
2022-12-06T19:11:46.286Z,29.27
2022-12-06T19:14:13.901Z,43.47
2022-12-06T19:16:46.346Z,30.97
2022-12-06T19:19:19.366Z,31.97
2022-12-06T19:21:47.530Z,31.27
2022-12-06T19:24:16.778Z,34.90
2022-12-06T19:26:44.578Z,29.55
2022-12-06T19:29:11.773Z,31.17
2022-12-06T19:31:38.442Z,46.03
2022-12-06T19:34:05.416Z,33.33
2022-12-06T19:36:32.821Z,41.17
2022-12-06T19:39:02.061Z,42.10
2022-12-06T19:41:29.735Z,30.23
2022-12-06T19:44:15.188Z,29.70
2022-12-06T19:46:43.905Z,32.33
2022-12-06T19:49:12.403Z,32.63
2022-12-06T19:51:41.652Z,44.00
2022-12-06T19:54:09.224Z,33.63
2022-12-06T19:56:37.060Z,34.27
2022-12-06T19:59:11.605Z,37.73
2022-12-06T20:01:46.484Z,54.53
2022-12-06T20:04:16.471Z,36.27
2022-12-06T20:06:43.609Z,42.33
2022-12-06T20:09:10.919Z,39.63
2022-12-06T20:11:57.396Z,38.63
2022-12-06T20:14:24.192Z,38.00
2022-12-06T20:16:51.197Z,39.93
2022-12-06T20:19:19.320Z,37.85
2022-12-06T20:21:46.216Z,46.67
2022-12-06T20:24:19.046Z,48.70
2022-12-06T20:26:47.258Z,36.53
2022-12-06T20:29:18.070Z,33.97
2022-12-06T20:31:45.718Z,36.47
2022-12-06T20:34:15.379Z,45.73
2022-12-06T20:36:43.119Z,36.42
2022-12-06T20:39:22.056Z,41.83
2022-12-06T20:41:49.845Z,43.33
2022-12-06T20:44:17.275Z,54.77
2022-12-06T20:46:44.883Z,50.63
2022-12-06T20:49:11.638Z,48.17
2022-12-06T20:51:38.337Z,42.23
2022-12-06T20:54:07.171Z,55.40
2022-12-06T20:56:36.828Z,40.17
2022-12-06T20:59:05.304Z,46.38
2022-12-06T21:01:35.734Z,58.17
2022-12-06T21:04:02.869Z,51.37
2022-12-06T21:06:29.597Z,62.33
2022-12-06T21:08:56.336Z,63.90
2022-12-06T21:11:25.095Z,68.73
2022-12-06T21:13:57.113Z,60.77
2022-12-06T21:16:26.585Z,65.13
2022-12-06T21:18:55.968Z,52.03
2022-12-06T21:21:32.610Z,50.65
2022-12-06T21:24:04.986Z,61.53
2022-12-06T21:26:32.301Z,55.70
2022-12-06T21:28:59.639Z,52.37
2022-12-06T21:31:31.650Z,47.63
2022-12-06T21:33:58.597Z,56.67
2022-12-06T21:36:25.868Z,38.93
2022-12-06T21:38:53.354Z,35.33
2022-12-06T21:41:20.923Z,41.03
2022-12-06T21:43:48.059Z,39.10
2022-12-06T21:46:25.943Z,34.93
2022-12-06T21:48:57.846Z,40.50
2022-12-06T21:51:27.685Z,37.30
2022-12-06T21:53:55.237Z,41.13
2022-12-06T21:56:25.401Z,44.77
2022-12-06T22:01:29.026Z,31.63
2022-12-06T22:03:59.350Z,54.53
2022-12-06T22:06:26.723Z,41.50
2022-12-06T22:09:02.727Z,38.53
2022-12-06T22:11:30.477Z,40.30
2022-12-06T22:13:59.645Z,29.90
2022-12-06T22:16:27.389Z,33.65
2022-12-06T22:18:55.315Z,32.57
2022-12-06T22:21:26.235Z,29.20
2022-12-06T22:23:53.245Z,28.70
2022-12-06T22:26:22.924Z,26.80
2022-12-06T22:28:50.491Z,45.65
2022-12-06T22:31:20.255Z,25.20
2022-12-06T22:33:48.000Z,27.10
2022-12-06T22:36:15.720Z,28.77
2022-12-06T22:38:43.077Z,25.27
2022-12-06T22:41:10.341Z,21.90
2022-12-06T22:43:37.550Z,24.10
2022-12-06T22:46:10.947Z,28.40
2022-12-06T22:48:38.257Z,27.40
2022-12-06T22:51:18.439Z,27.13
2022-12-06T22:56:14.585Z,24.83
2022-12-06T22:58:41.532Z,21.87
2022-12-06T23:01:11.877Z,23.00
2022-12-06T23:03:42.955Z,23.53
2022-12-06T23:06:09.963Z,25.27
2022-12-06T23:08:36.891Z,26.60
2022-12-06T23:11:10.517Z,25.13
2022-12-06T23:13:37.287Z,25.23
2022-12-06T23:16:07.923Z,25.03
2022-12-06T23:18:35.169Z,36.90
2022-12-06T23:21:09.613Z,22.93
2022-12-06T23:23:36.596Z,26.97
2022-12-06T23:26:08.654Z,33.23
2022-12-06T23:28:35.802Z,29.53
2022-12-06T23:31:14.179Z,25.07
2022-12-06T23:33:42.615Z,27.23
2022-12-06T23:36:18.244Z,31.30
2022-12-06T23:38:45.103Z,34.03
2022-12-06T23:41:14.843Z,22.23
2022-12-06T23:43:42.006Z,41.33
2022-12-06T23:46:12.696Z,25.53
2022-12-06T23:48:39.718Z,32.37
2022-12-06T23:51:12.214Z,43.23
2022-12-06T23:53:39.661Z,26.80
2022-12-06T23:56:12.087Z,27.20
2022-12-06T23:58:39.717Z,21.17
